sensor_id;sensor_type;location;lat;lon;timestamp;pressure;altitude;pressure_sealevel;temperature
71640;BMP280;60912;48.968;10.124;2022-12-11T00:00:32;95823.69;;;1.22
71640;BMP280;60912;48.968;10.124;2022-12-11T00:03:22;95825.63;;;1.27
71640;BMP280;60912;48.968;10.124;2022-12-11T00:05:58;95827.63;;;1.32
71640;BMP280;60912;48.968;10.124;2022-12-11T00:08:40;95837.75;;;1.32
71640;BMP280;60912;48.968;10.124;2022-12-11T00:11:26;95842.19;;;1.29
71640;BMP280;60912;48.968;10.124;2022-12-11T00:14:14;95843.91;;;1.16
71640;BMP280;60912;48.968;10.124;2022-12-11T00:17:00;95834.03;;;1.18
71640;BMP280;60912;48.968;10.124;2022-12-11T00:19:36;95843.19;;;1.26
71640;BMP280;60912;48.968;10.124;2022-12-11T00:22:31;95842.19;;;1.24
71640;BMP280;60912;48.968;10.124;2022-12-11T00:24:59;95853.53;;;1.22
71640;BMP280;60912;48.968;10.124;2022-12-11T00:28:08;95846.88;;;1.23
71640;BMP280;60912;48.968;10.124;2022-12-11T00:30:57;95852.53;;;1.36
71640;BMP280;60912;48.968;10.124;2022-12-11T00:33:54;95851.81;;;1.30
71640;BMP280;60912;48.968;10.124;2022-12-11T00:36:35;95849.34;;;1.21
71640;BMP280;60912;48.968;10.124;2022-12-11T00:42:09;95839.94;;;1.17
71640;BMP280;60912;48.968;10.124;2022-12-11T00:44:49;95852.28;;;1.18
71640;BMP280;60912;48.968;10.124;2022-12-11T00:50:06;95841.91;;;1.05
71640;BMP280;60912;48.968;10.124;2022-12-11T00:52:37;95841.91;;;0.94
71640;BMP280;60912;48.968;10.124;2022-12-11T00:55:08;95846.81;;;0.84
71640;BMP280;60912;48.968;10.124;2022-12-11T00:58:01;95849.06;;;1.02
71640;BMP280;60912;48.968;10.124;2022-12-11T01:00:53;95853.28;;;1.09
71640;BMP280;60912;48.968;10.124;2022-12-11T01:03:28;95849.81;;;1.14
71640;BMP280;60912;48.968;10.124;2022-12-11T01:06:27;95843.66;;;1.30
71640;BMP280;60912;48.968;10.124;2022-12-11T01:09:06;95842.91;;;1.46
71640;BMP280;60912;48.968;10.124;2022-12-11T01:14:36;95854.72;;;1.66
71640;BMP280;60912;48.968;10.124;2022-12-11T01:17:24;95849.53;;;1.68
71640;BMP280;60912;48.968;10.124;2022-12-11T01:20:36;95849.78;;;1.70
71640;BMP280;60912;48.968;10.124;2022-12-11T01:26:11;95846.06;;;1.78
71640;BMP280;60912;48.968;10.124;2022-12-11T01:29:02;95859.38;;;1.88
71640;BMP280;60912;48.968;10.124;2022-12-11T01:31:35;95853.72;;;1.80
71640;BMP280;60912;48.968;10.124;2022-12-11T01:34:26;95855.47;;;1.61
71640;BMP280;60912;48.968;10.124;2022-12-11T01:36:53;95854.97;;;1.68
71640;BMP280;60912;48.968;10.124;2022-12-11T01:42:14;95860.66;;;1.70
71640;BMP280;60912;48.968;10.124;2022-12-11T01:47:19;95854.50;;;1.64
71640;BMP280;60912;48.968;10.124;2022-12-11T01:49:44;95859.69;;;1.62
71640;BMP280;60912;48.968;10.124;2022-12-11T01:52:28;95865.59;;;1.66
71640;BMP280;60912;48.968;10.124;2022-12-11T01:55:16;95865.34;;;1.64
71640;BMP280;60912;48.968;10.124;2022-12-11T01:57:57;95865.59;;;1.55
71640;BMP280;60912;48.968;10.124;2022-12-11T02:00:28;95871.28;;;1.62
71640;BMP280;60912;48.968;10.124;2022-12-11T02:03:08;95870.28;;;1.71
71640;BMP280;60912;48.968;10.124;2022-12-11T02:05:34;95856.69;;;1.71
71640;BMP280;60912;48.968;10.124;2022-12-11T02:08:15;95855.94;;;1.65
71640;BMP280;60912;48.968;10.124;2022-12-11T02:21:56;95870.03;;;1.58
71640;BMP280;60912;48.968;10.124;2022-12-11T02:28:19;95868.06;;;1.53
71640;BMP280;60912;48.968;10.124;2022-12-11T02:30:35;95866.34;;;1.61
71640;BMP280;60912;48.968;10.124;2022-12-11T02:33:08;95864.88;;;1.49
71640;BMP280;60912;48.968;10.124;2022-12-11T02:35:48;95861.66;;;1.56
71640;BMP280;60912;48.968;10.124;2022-12-11T02:38:26;95871.78;;;1.61
71640;BMP280;60912;48.968;10.124;2022-12-11T02:41:03;95880.66;;;1.56
71640;BMP280;60912;48.968;10.124;2022-12-11T02:43:36;95862.88;;;1.60
71640;BMP280;60912;48.968;10.124;2022-12-11T02:46:15;95875.47;;;1.69
71640;BMP280;60912;48.968;10.124;2022-12-11T02:48:43;95869.81;;;1.50
71640;BMP280;60912;48.968;10.124;2022-12-11T02:51:30;95871.53;;;1.48
71640;BMP280;60912;48.968;10.124;2022-12-11T02:54:09;95870.53;;;1.51
71640;BMP280;60912;48.968;10.124;2022-12-11T02:56:50;95869.06;;;1.38
71640;BMP280;60912;48.968;10.124;2022-12-11T02:59:22;95860.41;;;1.45
71640;BMP280;60912;48.968;10.124;2022-12-11T03:01:53;95868.31;;;1.43
71640;BMP280;60912;48.968;10.124;2022-12-11T03:04:21;95867.06;;;1.44
71640;BMP280;60912;48.968;10.124;2022-12-11T03:06:55;95868.31;;;1.49
71640;BMP280;60912;48.968;10.124;2022-12-11T03:09:24;95858.69;;;1.42
71640;BMP280;60912;48.968;10.124;2022-12-11T03:11:54;95871.28;;;1.45
71640;BMP280;60912;48.968;10.124;2022-12-11T03:14:30;95863.16;;;1.29
71640;BMP280;60912;48.968;10.124;2022-12-11T03:22:33;95855.50;;;1.27
71640;BMP280;60912;48.968;10.124;2022-12-11T03:25:14;95862.66;;;1.36
71640;BMP280;60912;48.968;10.124;2022-12-11T03:27:57;95855.97;;;1.37
71640;BMP280;60912;48.968;10.124;2022-12-11T03:30:37;95848.56;;;1.43
71640;BMP280;60912;48.968;10.124;2022-12-11T03:33:09;95854.00;;;1.43
71640;BMP280;60912;48.968;10.124;2022-12-11T03:35:54;95855.00;;;1.45
71640;BMP280;60912;48.968;10.124;2022-12-11T03:38:45;95863.63;;;1.38
71640;BMP280;60912;48.968;10.124;2022-12-11T03:41:15;95859.44;;;1.21
71640;BMP280;60912;48.968;10.124;2022-12-11T03:46:59;95853.94;;;0.76
71640;BMP280;60912;48.968;10.124;2022-12-11T03:49:33;95862.34;;;0.89
71640;BMP280;60912;48.968;10.124;2022-12-11T03:52:18;95862.13;;;1.04
71640;BMP280;60912;48.968;10.124;2022-12-11T03:57:54;95865.63;;;1.21
71640;BMP280;60912;48.968;10.124;2022-12-11T04:00:43;95867.09;;;1.22
71640;BMP280;60912;48.968;10.124;2022-12-11T04:03:38;95864.13;;;1.20
71640;BMP280;60912;48.968;10.124;2022-12-11T04:06:26;95866.09;;;1.20
71640;BMP280;60912;48.968;10.124;2022-12-11T04:09:02;95871.28;;;1.18
71640;BMP280;60912;48.968;10.124;2022-12-11T04:11:37;95876.72;;;1.12
71640;BMP280;60912;48.968;10.124;2022-12-11T04:14:32;95870.28;;;1.09
71640;BMP280;60912;48.968;10.124;2022-12-11T04:17:20;95871.75;;;1.05
71640;BMP280;60912;48.968;10.124;2022-12-11T04:20:22;95866.59;;;1.07
71640;BMP280;60912;48.968;10.124;2022-12-11T04:23:11;95875.00;;;1.20
71640;BMP280;60912;48.968;10.124;2022-12-11T04:26:30;95857.22;;;1.19
71640;BMP280;60912;48.968;10.124;2022-12-11T04:29:05;95865.59;;;1.16
71640;BMP280;60912;48.968;10.124;2022-12-11T04:32:00;95860.41;;;1.06
71640;BMP280;60912;48.968;10.124;2022-12-11T04:40:48;95854.47;;;0.86
71640;BMP280;60912;48.968;10.124;2022-12-11T04:43:32;95850.25;;;0.73
71640;BMP280;60912;48.968;10.124;2022-12-11T04:49:27;95853.16;;;0.64
71640;BMP280;60912;48.968;10.124;2022-12-11T04:52:01;95859.88;;;0.75
71640;BMP280;60912;48.968;10.124;2022-12-11T04:57:21;95849.97;;;0.66
71640;BMP280;60912;48.968;10.124;2022-12-11T05:00:07;95857.16;;;0.75
71640;BMP280;60912;48.968;10.124;2022-12-11T05:02:51;95854.66;;;0.77
71640;BMP280;60912;48.968;10.124;2022-12-11T05:05:22;95853.69;;;0.68
71640;BMP280;60912;48.968;10.124;2022-12-11T05:08:03;95843.81;;;0.65
71640;BMP280;60912;48.968;10.124;2022-12-11T05:11:00;95842.97;;;0.31
71640;BMP280;60912;48.968;10.124;2022-12-11T05:13:50;95838.53;;;0.28
71640;BMP280;60912;48.968;10.124;2022-12-11T05:16:54;95850.91;;;0.52
71640;BMP280;60912;48.968;10.124;2022-12-11T05:19:20;95857.88;;;0.69
71640;BMP280;60912;48.968;10.124;2022-12-11T05:22:04;95843.53;;;0.63
71640;BMP280;60912;48.968;10.124;2022-12-11T05:24:39;95842.81;;;0.57
71640;BMP280;60912;48.968;10.124;2022-12-11T05:27:18;95852.88;;;0.51
71640;BMP280;60912;48.968;10.124;2022-12-11T05:29:50;95855.34;;;0.49
71640;BMP280;60912;48.968;10.124;2022-12-11T05:32:30;95848.00;;;0.61
71640;BMP280;60912;48.968;10.124;2022-12-11T05:35:16;95848.44;;;0.54
71640;BMP280;60912;48.968;10.124;2022-12-11T05:38:10;95840.78;;;0.41
71640;BMP280;60912;48.968;10.124;2022-12-11T05:41:10;95841.50;;;0.42
71640;BMP280;60912;48.968;10.124;2022-12-11T05:43:54;95844.28;;;0.58
71640;BMP280;60912;48.968;10.124;2022-12-11T05:49:59;95838.09;;;0.47
71640;BMP280;60912;48.968;10.124;2022-12-11T05:56:16;95839.84;;;0.55
71640;BMP280;60912;48.968;10.124;2022-12-11T05:59:16;95835.41;;;0.63
71640;BMP280;60912;48.968;10.124;2022-12-11T06:01:58;95836.91;;;0.64
71640;BMP280;60912;48.968;10.124;2022-12-11T06:04:38;95829.47;;;0.54
71640;BMP280;60912;48.968;10.124;2022-12-11T06:07:09;95830.66;;;0.42
71640;BMP280;60912;48.968;10.124;2022-12-11T06:10:30;95823.03;;;0.40
71640;BMP280;60912;48.968;10.124;2022-12-11T06:13:30;95833.91;;;0.51
71640;BMP280;60912;48.968;10.124;2022-12-11T06:16:12;95834.69;;;0.63
71640;BMP280;60912;48.968;10.124;2022-12-11T06:18:51;95832.94;;;0.54
71640;BMP280;60912;48.968;10.124;2022-12-11T06:21:34;95835.59;;;0.43
71640;BMP280;60912;48.968;10.124;2022-12-11T06:24:04;95839.09;;;0.49
71640;BMP280;60912;48.968;10.124;2022-12-11T06:26:35;95839.59;;;0.64
71640;BMP280;60912;48.968;10.124;2022-12-11T06:29:03;95837.63;;;0.65
71640;BMP280;60912;48.968;10.124;2022-12-11T06:31:42;95841.84;;;0.71
71640;BMP280;60912;48.968;10.124;2022-12-11T06:37:04;95853.97;;;0.93
71640;BMP280;60912;48.968;10.124;2022-12-11T06:39:47;95840.44;;;1.04
71640;BMP280;60912;48.968;10.124;2022-12-11T06:42:30;95840.69;;;1.12
71640;BMP280;60912;48.968;10.124;2022-12-11T06:45:21;95831.34;;;1.13
71640;BMP280;60912;48.968;10.124;2022-12-11T06:48:34;95829.34;;;1.19
71640;BMP280;60912;48.968;10.124;2022-12-11T06:51:27;95837.97;;;1.17
71640;BMP280;60912;48.968;10.124;2022-12-11T06:57:19;95820.72;;;1.20
71640;BMP280;60912;48.968;10.124;2022-12-11T07:00:01;95820.22;;;1.05
71640;BMP280;60912;48.968;10.124;2022-12-11T07:20:16;95812.75;;;0.66
71640;BMP280;60912;48.968;10.124;2022-12-11T07:22:53;95814.44;;;0.53
71640;BMP280;60912;48.968;10.124;2022-12-11T07:28:38;95812.28;;;0.62
71640;BMP280;60912;48.968;10.124;2022-12-11T07:31:42;95817.25;;;0.92
71640;BMP280;60912;48.968;10.124;2022-12-11T07:37:42;95823.88;;;1.52
71640;BMP280;60912;48.968;10.124;2022-12-11T07:40:18;95824.59;;;1.75
71640;BMP280;60912;48.968;10.124;2022-12-11T07:42:53;95836.16;;;1.87
71640;BMP280;60912;48.968;10.124;2022-12-11T07:45:25;95834.97;;;1.82
71640;BMP280;60912;48.968;10.124;2022-12-11T07:54:01;95832.75;;;1.69
71640;BMP280;60912;48.968;10.124;2022-12-11T07:56:33;95834.28;;;1.31
71640;BMP280;60912;48.968;10.124;2022-12-11T07:59:14;95830.59;;;1.23
71640;BMP280;60912;48.968;10.124;2022-12-11T08:02:15;95836.50;;;1.27
71640;BMP280;60912;48.968;10.124;2022-12-11T08:04:51;95826.09;;;1.42
71640;BMP280;60912;48.968;10.124;2022-12-11T08:07:58;95824.38;;;1.56
71640;BMP280;60912;48.968;10.124;2022-12-11T08:23:23;95846.56;;;1.82
71640;BMP280;60912;48.968;10.124;2022-12-11T08:29:42;95836.13;;;1.92
71640;BMP280;60912;48.968;10.124;2022-12-11T08:32:47;95830.50;;;1.85
71640;BMP280;60912;48.968;10.124;2022-12-11T08:48:14;95824.63;;;1.58
71640;BMP280;60912;48.968;10.124;2022-12-11T08:51:18;95834.72;;;1.86
71640;BMP280;60912;48.968;10.124;2022-12-11T08:53:57;95832.22;;;1.88
71640;BMP280;60912;48.968;10.124;2022-12-11T08:56:36;95838.84;;;1.92
71640;BMP280;60912;48.968;10.124;2022-12-11T08:59:11;95836.88;;;1.98
71640;BMP280;60912;48.968;10.124;2022-12-11T09:01:40;95839.88;;;1.89
71640;BMP280;60912;48.968;10.124;2022-12-11T09:04:09;95840.88;;;1.86
71640;BMP280;60912;48.968;10.124;2022-12-11T09:06:45;95835.72;;;1.60
71640;BMP280;60912;48.968;10.124;2022-12-11T09:17:09;95844.09;;;1.79
71640;BMP280;60912;48.968;10.124;2022-12-11T09:19:54;95845.34;;;1.67
71640;BMP280;60912;48.968;10.124;2022-12-11T09:22:31;95834.03;;;1.52
71640;BMP280;60912;48.968;10.124;2022-12-11T09:25:13;95834.25;;;1.54
71640;BMP280;60912;48.968;10.124;2022-12-11T09:28:26;95832.53;;;1.62
71640;BMP280;60912;48.968;10.124;2022-12-11T09:30:52;95840.63;;;1.78
71640;BMP280;60912;48.968;10.124;2022-12-11T09:33:24;95832.94;;;1.88
71640;BMP280;60912;48.968;10.124;2022-12-11T09:39:11;95831.00;;;1.83
71640;BMP280;60912;48.968;10.124;2022-12-11T09:48:21;95832.38;;;2.17
71640;BMP280;60912;48.968;10.124;2022-12-11T09:54:25;95831.75;;;2.47
71640;BMP280;60912;48.968;10.124;2022-12-11T10:20:35;95789.47;;;2.81
71640;BMP280;60912;48.968;10.124;2022-12-11T10:26:22;95789.28;;;2.74
71640;BMP280;60912;48.968;10.124;2022-12-11T10:32:21;95799.44;;;2.73
71640;BMP280;60912;48.968;10.124;2022-12-11T10:55:36;95774.28;;;2.20
71640;BMP280;60912;48.968;10.124;2022-12-11T10:58:33;95772.47;;;2.40
71640;BMP280;60912;48.968;10.124;2022-12-11T11:04:50;95773.91;;;2.41
71640;BMP280;60912;48.968;10.124;2022-12-11T11:14:33;95752.06;;;2.22
71640;BMP280;60912;48.968;10.124;2022-12-11T11:17:22;95744.16;;;2.18
71640;BMP280;60912;48.968;10.124;2022-12-11T11:20:32;95753.19;;;2.38
71640;BMP280;60912;48.968;10.124;2022-12-11T11:23:39;95745.88;;;2.63
71640;BMP280;60912;48.968;10.124;2022-12-11T11:29:40;95747.59;;;2.25
71640;BMP280;60912;48.968;10.124;2022-12-11T11:32:35;95740.56;;;1.99
71640;BMP280;60912;48.968;10.124;2022-12-11T11:39:22;95733.09;;;2.05
71640;BMP280;60912;48.968;10.124;2022-12-11T11:46:05;95734.59;;;2.42
71640;BMP280;60912;48.968;10.124;2022-12-11T11:49:06;95728.34;;;2.23
71640;BMP280;60912;48.968;10.124;2022-12-11T11:52:43;95726.09;;;2.27
71640;BMP280;60912;48.968;10.124;2022-12-11T11:55:16;95730.41;;;2.00
71640;BMP280;60912;48.968;10.124;2022-12-11T12:26:59;95701.63;;;2.62
71640;BMP280;60912;48.968;10.124;2022-12-11T12:36:48;95699.66;;;2.27
71640;BMP280;60912;48.968;10.124;2022-12-11T12:55:54;95697.50;;;2.14
71640;BMP280;60912;48.968;10.124;2022-12-11T13:01:25;95712.31;;;2.13
71640;BMP280;60912;48.968;10.124;2022-12-11T13:04:04;95703.16;;;2.16
71640;BMP280;60912;48.968;10.124;2022-12-11T13:10:32;95709.44;;;2.00
71640;BMP280;60912;48.968;10.124;2022-12-11T14:53:01;95731.66;;;1.30
71640;BMP280;60912;48.968;10.124;2022-12-11T15:05:59;95754.31;;;1.49
71640;BMP280;60912;48.968;10.124;2022-12-11T15:08:37;95760.19;;;1.59
71640;BMP280;60912;48.968;10.124;2022-12-11T15:11:15;95760.69;;;1.57
71640;BMP280;60912;48.968;10.124;2022-12-11T15:14:02;95755.75;;;1.56
71640;BMP280;60912;48.968;10.124;2022-12-11T15:16:45;95762.66;;;1.62
71640;BMP280;60912;48.968;10.124;2022-12-11T15:19:27;95754.59;;;1.29
71640;BMP280;60912;48.968;10.124;2022-12-11T15:22:00;95760.06;;;1.01
71640;BMP280;60912;48.968;10.124;2022-12-11T15:24:32;95762.25;;;0.97
71640;BMP280;60912;48.968;10.124;2022-12-11T15:26:59;95756.09;;;1.07
71640;BMP280;60912;48.968;10.124;2022-12-11T15:29:40;95757.81;;;1.11
71640;BMP280;60912;48.968;10.124;2022-12-11T15:32:17;95762.00;;;1.06
71640;BMP280;60912;48.968;10.124;2022-12-11T15:34:50;95773.34;;;1.04
71640;BMP280;60912;48.968;10.124;2022-12-11T15:37:25;95761.50;;;1.02
71640;BMP280;60912;48.968;10.124;2022-12-11T15:43:14;95759.81;;;1.10
71640;BMP280;60912;48.968;10.124;2022-12-11T15:45:52;95770.91;;;1.23
71640;BMP280;60912;48.968;10.124;2022-12-11T15:55:53;95780.75;;;1.15
71640;BMP280;60912;48.968;10.124;2022-12-11T16:04:16;95782.97;;;1.11
71640;BMP280;60912;48.968;10.124;2022-12-11T16:06:48;95779.50;;;1.16
71640;BMP280;60912;48.968;10.124;2022-12-11T16:09:14;95777.56;;;1.11
71640;BMP280;60912;48.968;10.124;2022-12-11T16:12:04;95793.59;;;1.20
71640;BMP280;60912;48.968;10.124;2022-12-11T16:14:55;95796.78;;;1.30
71640;BMP280;60912;48.968;10.124;2022-12-11T16:20:43;95795.53;;;1.36
71640;BMP280;60912;48.968;10.124;2022-12-11T16:36:01;95776.25;;;1.45
71640;BMP280;60912;48.968;10.124;2022-12-11T16:38:56;95779.22;;;1.48
71640;BMP280;60912;48.968;10.124;2022-12-11T16:41:31;95787.13;;;1.45
71640;BMP280;60912;48.968;10.124;2022-12-11T16:44:03;95778.06;;;1.09
71640;BMP280;60912;48.968;10.124;2022-12-11T16:46:40;95783.47;;;1.15
71640;BMP280;60912;48.968;10.124;2022-12-11T16:49:50;95787.91;;;1.18
71640;BMP280;60912;48.968;10.124;2022-12-11T16:52:16;95784.44;;;1.18
71640;BMP280;60912;48.968;10.124;2022-12-11T16:54:42;95783.22;;;1.19
71640;BMP280;60912;48.968;10.124;2022-12-11T16:57:10;95787.44;;;1.25
71640;BMP280;60912;48.968;10.124;2022-12-11T16:59:42;95783.69;;;1.28
71640;BMP280;60912;48.968;10.124;2022-12-11T17:02:10;95776.28;;;1.34
71640;BMP280;60912;48.968;10.124;2022-12-11T17:04:37;95788.34;;;1.44
71640;BMP280;60912;48.968;10.124;2022-12-11T17:07:03;95775.81;;;1.30
71640;BMP280;60912;48.968;10.124;2022-12-11T17:09:28;95775.56;;;1.17
71640;BMP280;60912;48.968;10.124;2022-12-11T17:12:03;95779.75;;;1.18
71640;BMP280;60912;48.968;10.124;2022-12-11T17:14:29;95785.44;;;1.09
71640;BMP280;60912;48.968;10.124;2022-12-11T17:17:14;95782.22;;;1.05
71640;BMP280;60912;48.968;10.124;2022-12-11T17:19:39;95784.69;;;1.14
71640;BMP280;60912;48.968;10.124;2022-12-11T17:22:13;95779.03;;;1.12
71640;BMP280;60912;48.968;10.124;2022-12-11T17:24:48;95786.16;;;1.15
71640;BMP280;60912;48.968;10.124;2022-12-11T17:27:14;95786.66;;;1.19
71640;BMP280;60912;48.968;10.124;2022-12-11T17:29:51;95782.72;;;1.31
71640;BMP280;60912;48.968;10.124;2022-12-11T17:32:19;95772.34;;;1.35
71640;BMP280;60912;48.968;10.124;2022-12-11T17:34:45;95776.03;;;1.38
71640;BMP280;60912;48.968;10.124;2022-12-11T17:37:25;95789.59;;;1.43
71640;BMP280;60912;48.968;10.124;2022-12-11T17:39:52;95781.94;;;1.48
71640;BMP280;60912;48.968;10.124;2022-12-11T17:42:17;95780.22;;;1.44
71640;BMP280;60912;48.968;10.124;2022-12-11T17:44:55;95774.56;;;1.37
71640;BMP280;60912;48.968;10.124;2022-12-11T17:47:20;95783.72;;;1.23
71640;BMP280;60912;48.968;10.124;2022-12-11T17:49:46;95782.97;;;1.17
71640;BMP280;60912;48.968;10.124;2022-12-11T17:52:16;95787.66;;;1.16
71640;BMP280;60912;48.968;10.124;2022-12-11T17:54:45;95789.88;;;1.23
71640;BMP280;60912;48.968;10.124;2022-12-11T17:57:38;95793.06;;;1.27
71640;BMP280;60912;48.968;10.124;2022-12-11T18:00:11;95783.47;;;1.15
71640;BMP280;60912;48.968;10.124;2022-12-11T18:02:36;95780.00;;;1.03
71640;BMP280;60912;48.968;10.124;2022-12-11T18:05:11;95778.53;;;1.02
71640;BMP280;60912;48.968;10.124;2022-12-11T18:07:36;95788.88;;;1.04
71640;BMP280;60912;48.968;10.124;2022-12-11T18:10:04;95788.66;;;1.07
71640;BMP280;60912;48.968;10.124;2022-12-11T18:12:30;95790.63;;;0.96
71640;BMP280;60912;48.968;10.124;2022-12-11T18:15:00;95785.44;;;0.98
71640;BMP280;60912;48.968;10.124;2022-12-11T18:17:35;95786.41;;;0.89
71640;BMP280;60912;48.968;10.124;2022-12-11T18:20:01;95787.41;;;0.86
71640;BMP280;60912;48.968;10.124;2022-12-11T18:22:26;95782.97;;;0.83
71640;BMP280;60912;48.968;10.124;2022-12-11T18:24:56;95790.34;;;0.71
71640;BMP280;60912;48.968;10.124;2022-12-11T18:27:35;95786.84;;;0.54
71640;BMP280;60912;48.968;10.124;2022-12-11T18:30:04;95782.91;;;0.50
71640;BMP280;60912;48.968;10.124;2022-12-11T18:32:39;95784.34;;;0.28
71640;BMP280;60912;48.968;10.124;2022-12-11T18:35:08;95782.84;;;0.22
71640;BMP280;60912;48.968;10.124;2022-12-11T18:37:45;95794.44;;;0.28
71640;BMP280;60912;48.968;10.124;2022-12-11T18:40:13;95793.22;;;0.40
71640;BMP280;60912;48.968;10.124;2022-12-11T18:42:39;95793.25;;;0.51
71640;BMP280;60912;48.968;10.124;2022-12-11T18:45:10;95796.72;;;0.57
71640;BMP280;60912;48.968;10.124;2022-12-11T18:47:53;95799.69;;;0.65
71640;BMP280;60912;48.968;10.124;2022-12-11T18:50:26;95798.22;;;0.69
71640;BMP280;60912;48.968;10.124;2022-12-11T18:53:15;95790.09;;;0.69
71640;BMP280;60912;48.968;10.124;2022-12-11T18:55:49;95794.53;;;0.72
71640;BMP280;60912;48.968;10.124;2022-12-11T18:58:21;95793.78;;;0.66
71640;BMP280;60912;48.968;10.124;2022-12-11T19:01:23;95792.75;;;0.53
71640;BMP280;60912;48.968;10.124;2022-12-11T19:07:58;95792.28;;;0.54
71640;BMP280;60912;48.968;10.124;2022-12-11T19:11:15;95791.03;;;0.55
71640;BMP280;60912;48.968;10.124;2022-12-11T19:14:12;95791.56;;;0.65
71640;BMP280;60912;48.968;10.124;2022-12-11T19:20:25;95795.72;;;0.49
71640;BMP280;60912;48.968;10.124;2022-12-11T19:26:25;95792.28;;;0.54
71640;BMP280;60912;48.968;10.124;2022-12-11T19:36:37;95800.72;;;0.84
71640;BMP280;60912;48.968;10.124;2022-12-11T19:53:10;95793.06;;;0.83
71640;BMP280;60912;48.968;10.124;2022-12-11T19:59:19;95787.66;;;0.83
71640;BMP280;60912;48.968;10.124;2022-12-11T20:05:11;95793.22;;;0.34
71640;BMP280;60912;48.968;10.124;2022-12-11T20:07:47;95792.91;;;0.16
71640;BMP280;60912;48.968;10.124;2022-12-11T20:19:42;95783.81;;;0.19
71640;BMP280;60912;48.968;10.124;2022-12-11T20:35:58;95800.75;;;-0.40
71640;BMP280;60912;48.968;10.124;2022-12-11T20:39:27;95800.84;;;-0.23
71640;BMP280;60912;48.968;10.124;2022-12-11T20:55:56;95802.88;;;-0.50
71640;BMP280;60912;48.968;10.124;2022-12-11T21:02:12;95801.22;;;-0.42
71640;BMP280;60912;48.968;10.124;2022-12-11T21:04:39;95794.88;;;-0.39
71640;BMP280;60912;48.968;10.124;2022-12-11T21:07:25;95801.38;;;-0.19
71640;BMP280;60912;48.968;10.124;2022-12-11T21:09:53;95792.63;;;0.03
71640;BMP280;60912;48.968;10.124;2022-12-11T21:12:32;95785.97;;;0.04
71640;BMP280;60912;48.968;10.124;2022-12-11T21:14:57;95783.28;;;0.04
71640;BMP280;60912;48.968;10.124;2022-12-11T21:17:23;95783.75;;;-0.04
71640;BMP280;60912;48.968;10.124;2022-12-11T21:20:02;95778.09;;;0.00
71640;BMP280;60912;48.968;10.124;2022-12-11T21:22:39;95779.84;;;0.14
71640;BMP280;60912;48.968;10.124;2022-12-11T21:25:16;95792.22;;;0.26
71640;BMP280;60912;48.968;10.124;2022-12-11T21:27:47;95792.25;;;0.38
71640;BMP280;60912;48.968;10.124;2022-12-11T21:30:15;95788.78;;;0.31
71640;BMP280;60912;48.968;10.124;2022-12-11T21:32:59;95795.66;;;0.38
71640;BMP280;60912;48.968;10.124;2022-12-11T21:35:27;95799.13;;;0.38
71640;BMP280;60912;48.968;10.124;2022-12-11T21:38:01;95797.16;;;0.39
71640;BMP280;60912;48.968;10.124;2022-12-11T21:40:33;95796.19;;;0.31
71640;BMP280;60912;48.968;10.124;2022-12-11T21:43:14;95795.06;;;0.00
71640;BMP280;60912;48.968;10.124;2022-12-11T21:45:43;95798.25;;;-0.07
71640;BMP280;60912;48.968;10.124;2022-12-11T21:48:55;95797.72;;;-0.11
71640;BMP280;60912;48.968;10.124;2022-12-11T21:51:36;95790.91;;;-0.01
71640;BMP280;60912;48.968;10.124;2022-12-11T21:54:18;95795.81;;;0.01
71640;BMP280;60912;48.968;10.124;2022-12-11T21:57:21;95799.03;;;0.05
71640;BMP280;60912;48.968;10.124;2022-12-11T21:59:57;95790.16;;;0.05
71640;BMP280;60912;48.968;10.124;2022-12-11T22:02:23;95794.41;;;0.11
71640;BMP280;60912;48.968;10.124;2022-12-11T22:05:12;95798.34;;;0.16
71640;BMP280;60912;48.968;10.124;2022-12-11T22:07:38;95800.56;;;0.12
71640;BMP280;60912;48.968;10.124;2022-12-11T22:10:15;95794.19;;;0.20
71640;BMP280;60912;48.968;10.124;2022-12-11T22:12:47;95801.81;;;0.22
71640;BMP280;60912;48.968;10.124;2022-12-11T22:15:54;95810.22;;;0.24
71640;BMP280;60912;48.968;10.124;2022-12-11T22:18:29;95804.97;;;0.09
71640;BMP280;60912;48.968;10.124;2022-12-11T22:20:55;95807.19;;;0.11
71640;BMP280;60912;48.968;10.124;2022-12-11T22:23:21;95809.66;;;0.09
71640;BMP280;60912;48.968;10.124;2022-12-11T22:25:47;95808.66;;;0.06
71640;BMP280;60912;48.968;10.124;2022-12-11T22:28:36;95805.66;;;-0.02
71640;BMP280;60912;48.968;10.124;2022-12-11T22:31:11;95806.94;;;0.14
71640;BMP280;60912;48.968;10.124;2022-12-11T22:34:03;95805.75;;;0.21
71640;BMP280;60912;48.968;10.124;2022-12-11T22:36:31;95804.50;;;0.11
71640;BMP280;60912;48.968;10.124;2022-12-11T22:38:58;95807.94;;;0.11
71640;BMP280;60912;48.968;10.124;2022-12-11T22:41:33;95805.50;;;0.19
71640;BMP280;60912;48.968;10.124;2022-12-11T22:43:59;95805.72;;;0.15
71640;BMP280;60912;48.968;10.124;2022-12-11T22:46:34;95812.84;;;0.13
71640;BMP280;60912;48.968;10.124;2022-12-11T22:49:26;95815.31;;;0.11
71640;BMP280;60912;48.968;10.124;2022-12-11T22:52:12;95805.47;;;0.13
71640;BMP280;60912;48.968;10.124;2022-12-11T22:58:15;95808.72;;;0.40
71640;BMP280;60912;48.968;10.124;2022-12-11T23:00:59;95807.06;;;0.53
71640;BMP280;60912;48.968;10.124;2022-12-11T23:13:02;95812.03;;;0.77
71640;BMP280;60912;48.968;10.124;2022-12-11T23:15:47;95796.50;;;0.78
71640;BMP280;60912;48.968;10.124;2022-12-11T23:18:13;95798.00;;;0.73
71640;BMP280;60912;48.968;10.124;2022-12-11T23:20:47;95813.25;;;0.70
71640;BMP280;60912;48.968;10.124;2022-12-11T23:23:16;95811.03;;;0.69
71640;BMP280;60912;48.968;10.124;2022-12-11T23:25:58;95812.00;;;0.60
71640;BMP280;60912;48.968;10.124;2022-12-11T23:28:38;95810.28;;;0.57
71640;BMP280;60912;48.968;10.124;2022-12-11T23:31:26;95818.66;;;0.59
71640;BMP280;60912;48.968;10.124;2022-12-11T23:34:16;95827.78;;;0.62
71640;BMP280;60912;48.968;10.124;2022-12-11T23:36:55;95823.13;;;0.62
71640;BMP280;60912;48.968;10.124;2022-12-11T23:39:34;95832.19;;;0.48
71640;BMP280;60912;48.968;10.124;2022-12-11T23:42:08;95824.75;;;0.43
71640;BMP280;60912;48.968;10.124;2022-12-11T23:44:42;95818.88;;;0.45
71640;BMP280;60912;48.968;10.124;2022-12-11T23:47:29;95827.72;;;0.45
71640;BMP280;60912;48.968;10.124;2022-12-11T23:49:55;95828.97;;;0.44
71640;BMP280;60912;48.968;10.124;2022-12-11T23:52:50;95834.81;;;0.26
71640;BMP280;60912;48.968;10.124;2022-12-11T23:55:30;95828.44;;;0.29